Time,TemperatureF,DewpointF,PressureIn,WindDirection,WindDirectionDegrees,WindSpeedMPH,WindSpeedGustMPH,Humidity,HourlyPrecipIn,Conditions,Clouds,dailyrainin,SoftwareType,DateUTC
2013-02-21 00:03:00,12.3,9.4,30.09,SE,134,0.0,0.0,88,0.00,,---,0.00,VWS V14.01,2013-02-21 08:03:00,
2013-02-21 00:08:00,12.0,9.1,30.09,SE,134,0.0,0.0,88,0.00,,---,0.00,VWS V14.01,2013-02-21 08:08:00,
2013-02-21 00:13:00,11.7,8.8,30.09,SE,134,0.0,0.0,88,0.00,,---,0.00,VWS V14.01,2013-02-21 08:13:00,
2013-02-21 00:18:00,11.8,9.4,30.09,SE,134,0.0,0.0,90,0.00,,---,0.00,VWS V14.01,2013-02-21 08:18:00,
2013-02-21 00:23:00,11.8,9.2,30.09,SE,134,0.0,0.0,89,0.00,,---,0.00,VWS V14.01,2013-02-21 08:23:00,
2013-02-21 00:28:00,11.4,8.3,30.09,SE,134,0.0,0.0,87,0.00,,---,0.00,VWS V14.01,2013-02-21 08:28:00,
2013-02-21 00:33:00,11.1,8.2,30.09,SE,134,0.0,0.0,88,0.00,,---,0.00,VWS V14.01,2013-02-21 08:33:00,
2013-02-21 00:38:00,11.0,8.1,30.09,SE,134,0.0,0.0,88,0.00,,---,0.00,VWS V14.01,2013-02-21 08:38:00,
2013-02-21 00:43:00,10.8,7.9,30.10,SE,134,0.0,0.0,88,0.00,,---,0.00,VWS V14.01,2013-02-21 08:43:00,
2013-02-21 00:48:00,10.9,8.3,30.10,SE,134,0.0,0.0,89,0.00,,---,0.00,VWS V14.01,2013-02-21 08:48:00,
2013-02-21 00:53:00,10.9,8.3,30.09,SE,134,0.0,0.0,89,0.00,,---,0.00,VWS V14.01,2013-02-21 08:53:00,
2013-02-21 00:58:00,10.8,8.2,30.09,SE,134,0.0,0.0,89,0.00,,---,0.00,VWS V14.01,2013-02-21 08:58:00,
2013-02-21 01:03:00,10.7,8.1,30.09,SE,134,0.0,0.0,89,0.00,,---,0.00,VWS V14.01,2013-02-21 09:03:00,
2013-02-21 01:08:00,10.4,7.6,30.09,SE,134,0.0,0.0,88,0.00,,---,0.00,VWS V14.01,2013-02-21 09:08:00,
2013-02-21 01:13:00,10.2,7.4,30.10,SE,134,0.0,0.0,88,0.00,,---,0.00,VWS V14.01,2013-02-21 09:13:00,
2013-02-21 01:18:00,9.8,6.7,30.10,SE,134,0.0,0.0,87,0.00,,---,0.00,VWS V14.01,2013-02-21 09:18:00,
2013-02-21 01:23:00,9.6,6.8,30.10,SE,134,0.0,0.0,88,0.00,,---,0.00,VWS V14.01,2013-02-21 09:23:00,
2013-02-21 01:28:00,9.5,6.7,30.10,SE,134,0.0,0.0,88,0.00,,---,0.00,VWS V14.01,2013-02-21 09:28:00,
2013-02-21 01:33:00,9.2,6.1,30.10,SE,134,0.0,0.0,87,0.00,,---,0.00,VWS V14.01,2013-02-21 09:33:00,
2013-02-21 01:38:00,9.0,5.9,30.10,SE,134,0.0,0.0,87,0.00,,---,0.00,VWS V14.01,2013-02-21 09:38:00,
2013-02-21 01:43:00,8.9,6.1,30.10,SE,134,0.0,0.0,88,0.00,,---,0.00,VWS V14.01,2013-02-21 09:43:00,
2013-02-21 01:48:00,8.9,6.1,30.10,SE,134,0.0,0.0,88,0.00,,---,0.00,VWS V14.01,2013-02-21 09:48:00,
2013-02-21 01:53:00,8.9,6.3,30.10,SE,134,0.0,0.0,89,0.00,,---,0.00,VWS V14.01,2013-02-21 09:53:00,
2013-02-21 01:58:00,9.1,6.8,30.10,SE,134,0.0,0.0,90,0.00,,---,0.00,VWS V14.01,2013-02-21 09:58:00,
2013-02-21 02:04:00,9.0,6.2,30.10,SE,134,0.0,0.0,88,0.00,,---,0.00,VWS V14.01,2013-02-21 10:04:00,
2013-02-21 02:09:00,8.7,5.9,30.10,SE,134,0.0,0.0,88,0.00,,---,0.00,VWS V14.01,2013-02-21 10:09:00,
2013-02-21 02:14:00,8.5,5.7,30.10,SE,134,0.0,0.0,88,0.00,,---,0.00,VWS V14.01,2013-02-21 10:14:00,
2013-02-21 02:19:00,8.5,5.7,30.10,SE,134,0.0,0.0,88,0.00,,---,0.00,VWS V14.01,2013-02-21 10:19:00,
2013-02-21 02:24:00,8.5,5.7,30.09,SE,134,0.0,0.0,88,0.00,,---,0.00,VWS V14.01,2013-02-21 10:24:00,
2013-02-21 02:29:00,8.6,5.8,30.10,SE,134,0.0,0.0,88,0.00,,---,0.00,VWS V14.01,2013-02-21 10:29:00,
2013-02-21 02:34:00,8.7,6.1,30.10,SE,134,0.0,0.0,89,0.00,,---,0.00,VWS V14.01,2013-02-21 10:34:00,
2013-02-21 02:39:00,8.4,5.3,30.10,SE,134,0.0,0.0,87,0.00,,---,0.00,VWS V14.01,2013-02-21 10:39:00,
2013-02-21 02:44:00,8.1,4.8,30.10,SE,134,0.0,0.0,86,0.00,,---,0.00,VWS V14.01,2013-02-21 10:44:00,
2013-02-21 02:49:00,8.0,5.2,30.10,SE,134,0.0,0.0,88,0.00,,---,0.00,VWS V14.01,2013-02-21 10:49:00,
2013-02-21 02:54:00,8.3,5.7,30.09,SE,134,0.0,0.0,89,0.00,,---,0.00,VWS V14.01,2013-02-21 10:54:00,
2013-02-21 02:59:00,8.7,6.4,30.09,SE,134,0.0,0.0,90,0.00,,---,0.00,VWS V14.01,2013-02-21 10:59:00,
2013-02-21 03:04:00,9.2,7.1,30.10,SE,134,0.0,0.0,91,0.00,,---,0.00,VWS V14.01,2013-02-21 11:04:00,
2013-02-21 03:09:00,9.5,7.4,30.09,SE,134,0.0,0.0,91,0.00,,---,0.00,VWS V14.01,2013-02-21 11:09:00,
2013-02-21 03:14:00,9.4,6.8,30.10,SE,134,0.0,0.0,89,0.00,,---,0.00,VWS V14.01,2013-02-21 11:14:00,
2013-02-21 03:19:00,9.3,6.7,30.10,SE,132,0.0,0.0,89,0.00,,---,0.00,VWS V14.01,2013-02-21 11:19:00,
2013-02-21 03:24:00,9.1,6.3,30.09,SE,132,0.0,0.0,88,0.00,,---,0.00,VWS V14.01,2013-02-21 11:24:00,
2013-02-21 03:29:00,9.1,6.5,30.09,SSE,148,0.0,0.0,89,0.00,,---,0.00,VWS V14.01,2013-02-21 11:29:00,
2013-02-21 03:34:00,9.4,7.1,30.09,SSE,148,0.0,0.0,90,0.00,,---,0.00,VWS V14.01,2013-02-21 11:34:00,
2013-02-21 03:39:00,9.6,7.3,30.09,SSE,148,0.0,0.0,90,0.00,,---,0.00,VWS V14.01,2013-02-21 11:39:00,
2013-02-21 03:44:00,9.7,7.4,30.09,SSE,148,0.0,0.0,90,0.00,,---,0.00,VWS V14.01,2013-02-21 11:44:00,
2013-02-21 03:49:00,9.6,7.0,30.09,SSE,148,0.0,0.0,89,0.00,,---,0.00,VWS V14.01,2013-02-21 11:49:00,
2013-02-21 03:54:00,9.5,6.9,30.10,SSE,148,0.0,0.0,89,0.00,,---,0.00,VWS V14.01,2013-02-21 11:54:00,
2013-02-21 03:59:00,9.5,6.9,30.10,SSE,148,0.0,0.0,89,0.00,,---,0.00,VWS V14.01,2013-02-21 11:59:00,
2013-02-21 04:04:00,9.4,6.6,30.10,SSE,148,0.0,0.0,88,0.00,,---,0.00,VWS V14.01,2013-02-21 12:04:00,
2013-02-21 04:09:00,9.1,6.3,30.10,SSE,148,0.0,0.0,88,0.00,,---,0.00,VWS V14.01,2013-02-21 12:09:00,
2013-02-21 04:14:00,8.8,5.7,30.10,SSE,148,0.0,0.0,87,0.00,,---,0.00,VWS V14.01,2013-02-21 12:14:00,
2013-02-21 04:20:00,8.5,5.4,30.10,SSE,148,0.0,0.0,87,0.00,,---,0.00,VWS V14.01,2013-02-21 12:20:00,
2013-02-21 04:25:00,8.2,5.1,30.10,SSE,148,0.0,0.0,87,0.00,,---,0.00,VWS V14.01,2013-02-21 12:25:00,
2013-02-21 04:30:00,8.0,4.9,30.10,SSE,148,0.0,0.0,87,0.00,,---,0.00,VWS V14.01,2013-02-21 12:30:00,
2013-02-21 04:35:00,8.0,5.2,30.10,SSE,148,0.0,0.0,88,0.00,,---,0.00,VWS V14.01,2013-02-21 12:35:00,
2013-02-21 04:40:00,8.0,5.2,30.10,SSE,148,0.0,0.0,88,0.00,,---,0.00,VWS V14.01,2013-02-21 12:40:00,
2013-02-21 04:45:00,8.3,5.7,30.10,SSE,148,0.0,0.0,89,0.00,,---,0.00,VWS V14.01,2013-02-21 12:45:00,
2013-02-21 04:50:00,8.4,5.8,30.10,SSE,148,0.0,0.0,89,0.00,,---,0.00,VWS V14.01,2013-02-21 12:50:00,
2013-02-21 04:55:00,8.7,6.1,30.10,SSE,148,0.0,0.0,89,0.00,,---,0.00,VWS V14.01,2013-02-21 12:55:00,
2013-02-21 05:00:00,8.8,6.5,30.10,SSE,148,0.0,0.0,90,0.00,,---,0.00,VWS V14.01,2013-02-21 13:00:00,
2013-02-21 05:05:00,8.9,6.3,30.10,SSE,148,0.0,0.0,89,0.00,,---,0.00,VWS V14.01,2013-02-21 13:05:00,
2013-02-21 05:10:00,9.0,6.4,30.10,SSE,148,0.0,0.0,89,0.00,,---,0.00,VWS V14.01,2013-02-21 13:10:00,
2013-02-21 05:15:00,9.1,6.5,30.11,SSE,148,0.0,0.0,89,0.00,,---,0.00,VWS V14.01,2013-02-21 13:15:00,
2013-02-21 05:20:00,9.3,7.0,30.11,SSE,148,0.0,0.0,90,0.00,,---,0.00,VWS V14.01,2013-02-21 13:20:00,
2013-02-21 05:25:00,9.1,6.3,30.11,SSE,148,0.0,0.0,88,0.00,,---,0.00,VWS V14.01,2013-02-21 13:25:00,
2013-02-21 05:30:00,8.8,6.0,30.11,SSE,148,0.0,0.0,88,0.00,,---,0.00,VWS V14.01,2013-02-21 13:30:00,
2013-02-21 05:35:00,8.2,4.9,30.10,SSE,148,0.0,0.0,86,0.00,,---,0.00,VWS V14.01,2013-02-21 13:35:00,
2013-02-21 05:40:00,7.8,4.7,30.11,SSE,148,0.0,0.0,87,0.00,,---,0.00,VWS V14.01,2013-02-21 13:40:00,
2013-02-21 05:45:00,8.0,5.2,30.11,SSE,148,0.0,0.0,88,0.00,,---,0.00,VWS V14.01,2013-02-21 13:45:00,
2013-02-21 05:50:00,8.3,5.7,30.11,SSE,148,0.0,0.0,89,0.00,,---,0.00,VWS V14.01,2013-02-21 13:50:00,
2013-02-21 05:55:00,8.7,6.4,30.11,SSE,148,0.0,0.0,90,0.00,,---,0.00,VWS V14.01,2013-02-21 13:55:00,
2013-02-21 06:00:00,9.0,6.7,30.11,SW,217,0.0,0.0,90,0.00,,---,0.00,VWS V14.01,2013-02-21 14:00:00,
2013-02-21 06:05:00,9.2,6.6,30.11,SW,217,0.0,0.0,89,0.00,,---,0.00,VWS V14.01,2013-02-21 14:05:00,
2013-02-21 06:10:00,9.2,6.6,30.11,SW,217,0.0,0.0,89,0.00,,---,0.00,VWS V14.01,2013-02-21 14:10:00,
2013-02-21 06:15:00,9.2,6.6,30.11,SW,217,0.0,0.0,89,0.00,,---,0.00,VWS V14.01,2013-02-21 14:15:00,
2013-02-21 06:20:00,9.2,6.6,30.11,SW,217,0.0,0.0,89,0.00,,---,0.00,VWS V14.01,2013-02-21 14:20:00,
2013-02-21 06:25:00,9.0,6.2,30.12,SW,217,0.0,0.0,88,0.00,,---,0.00,VWS V14.01,2013-02-21 14:25:00,
2013-02-21 06:30:00,9.0,6.4,30.12,SW,217,0.0,0.0,89,0.00,,---,0.00,VWS V14.01,2013-02-21 14:30:00,
2013-02-21 06:36:00,9.1,6.5,30.12,SW,217,0.0,0.0,89,0.00,,---,0.00,VWS V14.01,2013-02-21 14:36:00,
2013-02-21 06:41:00,9.2,6.6,30.12,SW,217,0.0,0.0,89,0.00,,---,0.00,VWS V14.01,2013-02-21 14:41:00,
2013-02-21 06:46:00,9.2,6.6,30.12,SW,217,0.0,0.0,89,0.00,,---,0.00,VWS V14.01,2013-02-21 14:46:00,
2013-02-21 06:51:00,9.4,6.8,30.13,SW,217,0.0,0.0,89,0.00,,---,0.00,VWS V14.01,2013-02-21 14:51:00,
2013-02-21 06:56:00,9.5,6.9,30.13,SW,217,0.0,0.0,89,0.00,,---,0.00,VWS V14.01,2013-02-21 14:56:00,
2013-02-21 07:01:00,9.5,6.9,30.13,SW,217,0.0,0.0,89,0.00,,---,0.00,VWS V14.01,2013-02-21 15:01:00,
2013-02-21 07:06:00,9.6,7.0,30.13,SW,217,0.0,0.0,89,0.00,,---,0.00,VWS V14.01,2013-02-21 15:06:00,
2013-02-21 07:11:00,9.8,7.2,30.13,SW,217,0.0,0.0,89,0.00,,---,0.00,VWS V14.01,2013-02-21 15:11:00,
2013-02-21 07:16:00,9.9,7.3,30.13,North,354,0.0,0.0,89,0.00,,---,0.00,VWS V14.01,2013-02-21 15:16:00,
2013-02-21 07:21:00,10.3,8.0,30.13,North,354,0.0,0.0,90,0.00,,---,0.00,VWS V14.01,2013-02-21 15:21:00,
2013-02-21 07:26:00,11.1,9.0,30.13,North,355,0.0,0.0,91,0.00,,---,0.00,VWS V14.01,2013-02-21 15:26:00,
2013-02-21 07:31:00,11.8,9.7,30.13,North,355,0.0,0.0,91,0.00,,---,0.00,VWS V14.01,2013-02-21 15:31:00,
2013-02-21 07:36:00,12.5,10.4,30.13,North,356,0.0,0.0,91,0.00,,---,0.00,VWS V14.01,2013-02-21 15:36:00,
2013-02-21 07:41:00,13.2,11.3,30.13,North,355,0.0,0.0,92,0.00,,---,0.00,VWS V14.01,2013-02-21 15:41:00,
2013-02-21 07:46:00,13.7,11.6,30.13,North,356,0.0,0.0,91,0.00,,---,0.00,VWS V14.01,2013-02-21 15:46:00,
2013-02-21 07:51:00,14.3,12.4,30.13,North,355,0.0,0.0,92,0.00,,---,0.00,VWS V14.01,2013-02-21 15:51:00,
2013-02-21 07:56:00,14.9,13.0,30.14,North,356,0.0,0.0,92,0.00,,---,0.00,VWS V14.01,2013-02-21 15:56:00,
2013-02-21 08:01:00,15.8,13.9,30.14,North,356,0.0,0.0,92,0.00,,---,0.00,VWS V14.01,2013-02-21 16:01:00,
2013-02-21 08:06:00,16.7,14.8,30.14,North,355,0.0,0.0,92,0.00,,---,0.00,VWS V14.01,2013-02-21 16:06:00,
2013-02-21 08:11:00,17.9,16.2,30.14,North,356,0.0,0.0,93,0.00,,---,0.00,VWS V14.01,2013-02-21 16:11:00,
2013-02-21 08:16:00,19.0,17.3,30.14,North,355,0.0,0.0,93,0.00,,---,0.00,VWS V14.01,2013-02-21 16:16:00,
2013-02-21 08:21:00,19.9,18.2,30.14,North,355,0.0,0.0,93,0.00,,---,0.00,VWS V14.01,2013-02-21 16:21:00,
2013-02-21 08:26:00,20.8,19.1,30.14,North,355,0.0,0.0,93,0.00,,---,0.00,VWS V14.01,2013-02-21 16:26:00,
2013-02-21 08:31:00,21.6,19.6,30.13,North,355,0.0,0.0,92,0.00,,---,0.00,VWS V14.01,2013-02-21 16:31:00,
2013-02-21 08:36:00,22.3,20.1,30.13,North,356,0.0,0.0,91,0.00,,---,0.00,VWS V14.01,2013-02-21 16:36:00,
2013-02-21 08:41:00,22.9,19.6,30.13,North,6,0.0,0.0,87,0.00,,---,0.00,VWS V14.01,2013-02-21 16:41:00,
2013-02-21 08:47:00,23.4,19.6,30.13,NNE,23,0.0,1.0,85,0.00,,---,0.00,VWS V14.01,2013-02-21 16:47:00,
2013-02-21 08:52:00,24.0,18.5,30.14,NNE,23,0.0,1.0,79,0.00,,---,0.00,VWS V14.01,2013-02-21 16:52:00,
2013-02-21 08:57:00,24.8,17.1,30.14,NW,304,0.0,1.0,72,0.00,,---,0.00,VWS V14.01,2013-02-21 16:57:00,
2013-02-21 09:02:00,25.9,15.8,30.14,NW,308,2.0,2.0,65,0.00,,---,0.00,VWS V14.01,2013-02-21 17:02:00,
2013-02-21 09:07:00,26.7,14.7,30.14,West,274,1.0,1.0,60,0.00,,---,0.00,VWS V14.01,2013-02-21 17:07:00,
2013-02-21 09:12:00,27.6,10.5,30.14,North,9,0.0,3.0,48,0.00,,---,0.00,VWS V14.01,2013-02-21 17:12:00,
2013-02-21 09:17:00,28.2,10.6,30.14,WSW,256,0.0,0.0,47,0.00,,---,0.00,VWS V14.01,2013-02-21 17:17:00,
2013-02-21 09:22:00,28.7,9.1,30.14,NE,41,0.0,0.0,43,0.00,,---,0.00,VWS V14.01,2013-02-21 17:22:00,
2013-02-21 09:27:00,29.0,9.3,30.14,West,263,0.0,1.0,43,0.00,,---,0.00,VWS V14.01,2013-02-21 17:27:00,
2013-02-21 09:32:00,29.6,12.3,30.15,ENE,57,2.0,4.0,48,0.00,,---,0.00,VWS V14.01,2013-02-21 17:32:00,
2013-02-21 09:37:00,29.4,13.1,30.15,SE,146,0.0,1.0,50,0.00,,---,0.00,VWS V14.01,2013-02-21 17:37:00,
2013-02-21 09:42:00,29.3,11.6,30.15,WNW,286,0.0,3.0,47,0.00,,---,0.00,VWS V14.01,2013-02-21 17:42:00,
2013-02-21 09:47:00,29.3,13.9,30.16,SSW,207,0.0,3.0,52,0.00,,---,0.00,VWS V14.01,2013-02-21 17:47:00,
2013-02-21 09:52:00,29.3,13.9,30.16,NW,315,2.0,2.0,52,0.00,,---,0.00,VWS V14.01,2013-02-21 17:52:00,
2013-02-21 09:57:00,28.9,13.5,30.16,ENE,75,0.0,2.0,52,0.00,,---,0.00,VWS V14.01,2013-02-21 17:57:00,
2013-02-21 10:02:00,29.0,14.9,30.15,SW,228,0.0,0.0,55,0.00,,---,0.00,VWS V14.01,2013-02-21 18:02:00,
2013-02-21 10:07:00,29.4,14.0,30.15,SW,218,0.0,0.0,52,0.00,,---,0.00,VWS V14.01,2013-02-21 18:07:00,
2013-02-21 10:12:00,29.3,14.7,30.16,ESE,110,0.0,0.0,54,0.00,,---,0.00,VWS V14.01,2013-02-21 18:12:00,
2013-02-21 10:17:00,29.2,15.5,30.16,WNW,290,2.0,4.0,56,0.00,,---,0.00,VWS V14.01,2013-02-21 18:17:00,
2013-02-21 10:22:00,29.0,15.7,30.16,NW,308,0.0,0.0,57,0.00,,---,0.00,VWS V14.01,2013-02-21 18:22:00,
2013-02-21 10:28:00,29.1,17.0,30.17,West,274,1.0,1.0,60,0.00,,---,0.00,VWS V14.01,2013-02-21 18:28:00,
2013-02-21 10:33:00,29.1,17.3,30.17,SSW,210,0.0,0.0,61,0.00,,---,0.00,VWS V14.01,2013-02-21 18:33:00,
2013-02-21 10:38:00,29.2,18.2,30.17,SSE,150,0.0,1.0,63,0.00,,---,0.00,VWS V14.01,2013-02-21 18:38:00,
2013-02-21 10:43:00,29.2,18.5,30.16,ENE,77,1.0,1.0,64,0.00,,---,0.00,VWS V14.01,2013-02-21 18:43:00,
2013-02-21 10:48:00,29.0,17.6,30.16,East,96,0.0,2.0,62,0.00,,---,0.00,VWS V14.01,2013-02-21 18:48:00,
2013-02-21 10:53:00,28.6,18.3,30.16,NW,305,0.0,1.0,65,0.00,,---,0.00,VWS V14.01,2013-02-21 18:53:00,
2013-02-21 10:58:00,29.1,19.5,30.15,ESE,118,0.0,1.0,67,0.00,,---,0.00,VWS V14.01,2013-02-21 18:58:00,
2013-02-21 11:03:00,29.4,19.5,30.15,SSW,210,0.0,1.0,66,0.00,,---,0.00,VWS V14.01,2013-02-21 19:03:00,
2013-02-21 11:08:00,29.2,18.5,30.15,WNW,301,2.0,2.0,64,0.00,,---,0.00,VWS V14.01,2013-02-21 19:08:00,
2013-02-21 11:13:00,28.9,19.0,30.15,NW,322,0.0,0.0,66,0.00,,---,0.00,VWS V14.01,2013-02-21 19:13:00,
2013-02-21 11:18:00,28.9,18.3,30.15,NW,308,0.0,0.0,64,0.00,,---,0.00,VWS V14.01,2013-02-21 19:18:00,
2013-02-21 11:23:00,28.9,18.3,30.14,NNE,23,0.0,3.0,64,0.00,,---,0.00,VWS V14.01,2013-02-21 19:23:00,
2013-02-21 11:28:00,28.9,18.3,30.14,NW,319,2.0,2.0,64,0.00,,---,0.00,VWS V14.01,2013-02-21 19:28:00,
2013-02-21 11:33:00,29.2,18.5,30.14,WNW,283,0.0,0.0,64,0.00,,---,0.00,VWS V14.01,2013-02-21 19:33:00,
2013-02-21 11:38:00,29.0,17.6,30.13,NNW,330,0.0,0.0,62,0.00,,---,0.00,VWS V14.01,2013-02-21 19:38:00,
2013-02-21 11:43:00,28.9,17.2,30.13,NW,314,0.0,1.0,61,0.00,,---,0.00,VWS V14.01,2013-02-21 19:43:00,
2013-02-21 11:48:00,29.2,18.2,30.13,WSW,238,0.0,1.0,63,0.00,,---,0.00,VWS V14.01,2013-02-21 19:48:00,
2013-02-21 11:53:00,30.3,19.6,30.12,WNW,298,0.0,0.0,64,0.00,,---,0.00,VWS V14.01,2013-02-21 19:53:00,
2013-02-21 11:58:00,30.4,16.2,30.13,West,266,0.0,1.0,55,0.00,,---,0.00,VWS V14.01,2013-02-21 19:58:00,
2013-02-21 12:03:00,29.8,16.4,30.12,West,271,0.0,0.0,57,0.00,,---,0.00,VWS V14.01,2013-02-21 20:03:00,
2013-02-21 12:09:00,30.0,17.0,30.12,NNE,23,2.0,2.0,58,0.00,,---,0.00,VWS V14.01,2013-02-21 20:09:00,
2013-02-21 12:14:00,29.6,16.6,30.12,NW,326,4.0,4.0,58,0.00,,---,0.00,VWS V14.01,2013-02-21 20:14:00,
2013-02-21 12:19:00,29.0,15.3,30.12,ENE,59,0.0,3.0,56,0.00,,---,0.00,VWS V14.01,2013-02-21 20:19:00,
2013-02-21 12:24:00,28.7,15.0,30.12,ENE,63,4.0,7.0,56,0.00,,---,0.00,VWS V14.01,2013-02-21 20:24:00,
2013-02-21 12:29:00,28.4,15.5,30.12,NE,41,1.0,3.0,58,0.00,,---,0.00,VWS V14.01,2013-02-21 20:29:00,
2013-02-21 12:34:00,28.5,16.8,30.12,NE,52,0.0,5.0,61,0.00,,---,0.00,VWS V14.01,2013-02-21 20:34:00,
2013-02-21 12:39:00,28.8,16.7,30.12,NNE,25,2.0,6.0,60,0.00,,---,0.00,VWS V14.01,2013-02-21 20:39:00,
2013-02-21 12:44:00,28.5,15.6,30.12,NE,38,3.0,7.0,58,0.00,,---,0.00,VWS V14.01,2013-02-21 20:44:00,
2013-02-21 12:49:00,28.0,15.9,30.12,North,8,3.0,3.0,60,0.00,,---,0.00,VWS V14.01,2013-02-21 20:49:00,
2013-02-21 12:54:00,28.5,16.8,30.12,NNE,31,4.0,5.0,61,0.00,,---,0.00,VWS V14.01,2013-02-21 20:54:00,
2013-02-21 12:59:00,28.8,15.5,30.12,NNW,333,4.0,7.0,57,0.00,,---,0.00,VWS V14.01,2013-02-21 20:59:00,
2013-02-21 13:04:00,28.6,14.9,30.12,ESE,121,0.0,5.0,56,0.00,,---,0.00,VWS V14.01,2013-02-21 21:04:00,
2013-02-21 13:09:00,28.8,16.3,30.12,North,4,3.0,3.0,59,0.00,,---,0.00,VWS V14.01,2013-02-21 21:09:00,
2013-02-21 13:14:00,29.2,15.9,30.12,NNE,19,3.0,4.0,57,0.00,,---,0.00,VWS V14.01,2013-02-21 21:14:00,
2013-02-21 13:19:00,29.2,15.5,30.12,NW,322,3.0,6.0,56,0.00,,---,0.00,VWS V14.01,2013-02-21 21:19:00,
2013-02-21 13:24:00,29.6,17.0,30.12,NW,324,1.0,4.0,59,0.00,,---,0.00,VWS V14.01,2013-02-21 21:24:00,
2013-02-21 13:29:00,29.7,15.5,30.12,ENE,63,0.0,4.0,55,0.01,,---,0.01,VWS V14.01,2013-02-21 21:29:00,
2013-02-21 13:34:00,29.4,14.4,30.12,North,354,3.0,4.0,53,0.01,,---,0.01,VWS V14.01,2013-02-21 21:34:00,
2013-02-21 13:39:00,29.5,14.9,30.12,ENE,75,2.0,6.0,54,0.01,,---,0.01,VWS V14.01,2013-02-21 21:39:00,
2013-02-21 13:44:00,29.5,14.9,30.13,NNE,30,4.0,5.0,54,0.01,,---,0.01,VWS V14.01,2013-02-21 21:44:00,
2013-02-21 13:49:00,28.6,15.3,30.13,NNE,27,2.0,3.0,57,0.01,,---,0.01,VWS V14.01,2013-02-21 21:49:00,
2013-02-21 13:54:00,28.5,16.0,30.13,NE,56,4.0,4.0,59,0.01,,---,0.01,VWS V14.01,2013-02-21 21:54:00,
2013-02-21 13:59:00,28.5,14.8,30.13,ENE,71,0.0,4.0,56,0.01,,---,0.01,VWS V14.01,2013-02-21 21:59:00,
2013-02-21 14:05:00,28.3,15.0,30.13,NE,36,2.0,5.0,57,0.01,,---,0.01,VWS V14.01,2013-02-21 22:05:00,
2013-02-21 14:10:00,28.1,14.8,30.13,NNE,19,1.0,1.0,57,0.01,,---,0.01,VWS V14.01,2013-02-21 22:10:00,
2013-02-21 14:15:00,28.7,15.8,30.13,NNE,15,3.0,4.0,58,0.01,,---,0.01,VWS V14.01,2013-02-21 22:15:00,
2013-02-21 14:20:00,28.8,16.7,30.13,NE,53,4.0,4.0,60,0.01,,---,0.01,VWS V14.01,2013-02-21 22:20:00,
2013-02-21 14:25:00,28.2,16.1,30.13,NNE,32,3.0,3.0,60,0.01,,---,0.01,VWS V14.01,2013-02-21 22:25:00,
2013-02-21 14:30:00,27.3,14.5,30.13,NNW,342,1.0,3.0,58,0.01,,---,0.01,VWS V14.01,2013-02-21 22:30:00,
2013-02-21 14:35:00,27.3,14.9,30.13,NNE,16,3.0,3.0,59,0.00,,---,0.01,VWS V14.01,2013-02-21 22:35:00,
2013-02-21 14:40:00,27.5,14.3,30.14,NNE,19,3.0,4.0,57,0.00,,---,0.01,VWS V14.01,2013-02-21 22:40:00,
2013-02-21 14:45:00,27.0,14.2,30.14,NE,56,2.0,6.0,58,0.00,,---,0.01,VWS V14.01,2013-02-21 22:45:00,
2013-02-21 14:50:00,27.2,15.2,30.13,SE,128,1.0,5.0,60,0.00,,---,0.01,VWS V14.01,2013-02-21 22:50:00,
2013-02-21 14:55:00,28.0,15.1,30.13,NNE,25,2.0,4.0,58,0.00,,---,0.01,VWS V14.01,2013-02-21 22:55:00,
2013-02-21 15:00:00,28.2,14.5,30.13,East,97,1.0,2.0,56,0.00,,---,0.01,VWS V14.01,2013-02-21 23:00:00,
2013-02-21 15:05:00,28.2,14.9,30.13,NNE,32,5.0,6.0,57,0.00,,---,0.01,VWS V14.01,2013-02-21 23:05:00,
2013-02-21 15:10:00,28.2,14.5,30.13,NE,41,1.0,1.0,56,0.00,,---,0.01,VWS V14.01,2013-02-21 23:10:00,
2013-02-21 15:15:00,28.5,14.4,30.13,East,79,2.0,5.0,55,0.00,,---,0.01,VWS V14.01,2013-02-21 23:15:00,
2013-02-21 15:20:00,28.3,14.2,30.12,NE,37,0.0,1.0,55,0.00,,---,0.01,VWS V14.01,2013-02-21 23:20:00,
2013-02-21 15:25:00,28.6,14.9,30.12,ENE,64,0.0,0.0,56,0.00,,---,0.01,VWS V14.01,2013-02-21 23:25:00,
2013-02-21 15:30:00,28.3,14.6,30.13,ESE,103,1.0,2.0,56,0.00,,---,0.01,VWS V14.01,2013-02-21 23:30:00,
2013-02-21 15:35:00,28.2,14.5,30.13,NNE,30,0.0,3.0,56,0.00,,---,0.01,VWS V14.01,2013-02-21 23:35:00,
2013-02-21 15:40:00,28.1,13.6,30.13,NE,51,0.0,3.0,54,0.00,,---,0.01,VWS V14.01,2013-02-21 23:40:00,
2013-02-21 15:45:00,27.9,13.4,30.13,North,11,0.0,2.0,54,0.00,,---,0.01,VWS V14.01,2013-02-21 23:45:00,
2013-02-21 15:50:00,27.9,13.4,30.13,North,349,2.0,6.0,54,0.00,,---,0.01,VWS V14.01,2013-02-21 23:50:00,
2013-02-21 15:55:00,27.9,13.8,30.13,NNW,335,2.0,5.0,55,0.00,,---,0.01,VWS V14.01,2013-02-21 23:55:00,
2013-02-21 16:00:00,27.9,13.8,30.14,ESE,112,8.0,8.0,55,0.00,,---,0.01,VWS V14.01,2013-02-22 00:00:00,
2013-02-21 16:05:00,27.7,12.8,30.13,ENE,66,3.0,5.0,53,0.00,,---,0.01,VWS V14.01,2013-02-22 00:05:00,
2013-02-21 16:10:00,27.6,14.0,30.14,NNE,30,1.0,1.0,56,0.00,,---,0.01,VWS V14.01,2013-02-22 00:10:00,
2013-02-21 16:15:00,27.6,14.4,30.14,NNW,344,0.0,3.0,57,0.00,,---,0.01,VWS V14.01,2013-02-22 00:15:00,
2013-02-21 16:21:00,27.5,14.3,30.14,NNW,347,1.0,3.0,57,0.00,,---,0.01,VWS V14.01,2013-02-22 00:21:00,
2013-02-21 16:26:00,27.5,14.7,30.14,North,353,2.0,3.0,58,0.00,,---,0.01,VWS V14.01,2013-02-22 00:26:00,
2013-02-21 16:31:00,27.4,14.6,30.15,NNW,329,1.0,4.0,58,0.00,,---,0.01,VWS V14.01,2013-02-22 00:31:00,
2013-02-21 16:36:00,27.1,14.3,30.14,NNW,342,0.0,1.0,58,0.00,,---,0.01,VWS V14.01,2013-02-22 00:36:00,
2013-02-21 16:41:00,26.9,14.5,30.15,SE,128,1.0,4.0,59,0.00,,---,0.01,VWS V14.01,2013-02-22 00:41:00,
2013-02-21 16:46:00,26.7,14.3,30.15,NNW,342,1.0,4.0,59,0.00,,---,0.01,VWS V14.01,2013-02-22 00:46:00,
2013-02-21 16:51:00,26.6,14.2,30.16,NNE,32,5.0,8.0,59,0.00,,---,0.01,VWS V14.01,2013-02-22 00:51:00,
2013-02-21 16:56:00,26.6,13.4,30.15,North,1,0.0,0.0,57,0.00,,---,0.01,VWS V14.01,2013-02-22 00:56:00,
2013-02-21 17:01:00,26.5,14.1,30.16,NE,37,0.0,0.0,59,0.00,,---,0.01,VWS V14.01,2013-02-22 01:01:00,
2013-02-21 17:06:00,26.2,14.2,30.16,NW,319,0.0,0.0,60,0.00,,---,0.01,VWS V14.01,2013-02-22 01:06:00,
2013-02-21 17:11:00,26.0,13.6,30.16,West,271,0.0,1.0,59,0.00,,---,0.01,VWS V14.01,2013-02-22 01:11:00,
2013-02-21 17:16:00,25.8,13.1,30.16,NE,49,0.0,0.0,58,0.00,,---,0.01,VWS V14.01,2013-02-22 01:16:00,
2013-02-21 17:21:00,25.8,12.7,30.16,NE,47,0.0,2.0,57,0.00,,---,0.01,VWS V14.01,2013-02-22 01:21:00,
2013-02-21 17:26:00,25.7,13.0,30.17,ENE,60,1.0,2.0,58,0.00,,---,0.01,VWS V14.01,2013-02-22 01:26:00,
2013-02-21 17:31:00,25.4,13.1,30.16,NE,47,0.0,0.0,59,0.00,,---,0.01,VWS V14.01,2013-02-22 01:31:00,
2013-02-21 17:36:00,25.2,10.9,30.16,NE,37,1.0,2.0,54,0.00,,---,0.01,VWS V14.01,2013-02-22 01:36:00,
2013-02-21 17:41:00,25.3,11.8,30.17,NE,34,2.0,2.0,56,0.00,,---,0.01,VWS V14.01,2013-02-22 01:41:00,
2013-02-21 17:46:00,25.3,11.8,30.17,NNE,26,0.0,1.0,56,0.00,,---,0.01,VWS V14.01,2013-02-22 01:46:00,
2013-02-21 17:51:00,25.1,11.2,30.18,NE,44,0.0,0.0,55,0.00,,---,0.01,VWS V14.01,2013-02-22 01:51:00,
2013-02-21 17:56:00,24.9,11.8,30.18,NNE,14,1.0,3.0,57,0.00,,---,0.01,VWS V14.01,2013-02-22 01:56:00,
2013-02-21 18:01:00,24.8,10.5,30.18,NNE,21,1.0,2.0,54,0.00,,---,0.01,VWS V14.01,2013-02-22 02:01:00,
2013-02-21 18:06:00,24.8,10.9,30.18,NNE,32,0.0,0.0,55,0.00,,---,0.01,VWS V14.01,2013-02-22 02:06:00,
2013-02-21 18:11:00,24.5,10.7,30.18,NE,37,0.0,0.0,55,0.00,,---,0.01,VWS V14.01,2013-02-22 02:11:00,
2013-02-21 18:16:00,24.2,11.2,30.19,NE,49,0.0,0.0,57,0.00,,---,0.01,VWS V14.01,2013-02-22 02:16:00,
2013-02-21 18:21:00,24.0,10.6,30.19,NE,34,0.0,0.0,56,0.00,,---,0.01,VWS V14.01,2013-02-22 02:21:00,
2013-02-21 18:26:00,23.8,10.8,30.18,NE,34,0.0,0.0,57,0.00,,---,0.01,VWS V14.01,2013-02-22 02:26:00,
2013-02-21 18:32:00,23.4,10.4,30.19,ESE,117,0.0,0.0,57,0.00,,---,0.01,VWS V14.01,2013-02-22 02:32:00,
2013-02-21 18:37:00,22.8,10.6,30.19,ESE,117,0.0,0.0,59,0.00,,---,0.01,VWS V14.01,2013-02-22 02:37:00,
2013-02-21 18:42:00,22.2,10.4,30.20,ESE,117,0.0,0.0,60,0.00,,---,0.01,VWS V14.01,2013-02-22 02:42:00,
2013-02-21 18:47:00,21.8,10.4,30.20,ESE,117,0.0,0.0,61,0.00,,---,0.01,VWS V14.01,2013-02-22 02:47:00,
2013-02-21 18:52:00,21.5,10.5,30.20,ESE,117,0.0,0.0,62,0.00,,---,0.01,VWS V14.01,2013-02-22 02:52:00,
2013-02-21 18:57:00,21.2,10.6,30.20,ESE,118,0.0,0.0,63,0.00,,---,0.01,VWS V14.01,2013-02-22 02:57:00,
2013-02-21 19:02:00,20.8,9.9,30.20,ESE,118,0.0,0.0,62,0.00,,---,0.01,VWS V14.01,2013-02-22 03:02:00,
2013-02-21 19:07:00,20.7,9.8,30.20,ESE,119,0.0,0.0,62,0.00,,---,0.01,VWS V14.01,2013-02-22 03:07:00,
2013-02-21 19:12:00,20.6,9.7,30.20,ESE,119,0.0,0.0,62,0.00,,---,0.01,VWS V14.01,2013-02-22 03:12:00,
2013-02-21 19:17:00,20.4,9.5,30.21,ESE,121,0.0,0.0,62,0.00,,---,0.01,VWS V14.01,2013-02-22 03:17:00,
2013-02-21 19:22:00,20.0,9.8,30.21,ESE,121,0.0,0.0,64,0.00,,---,0.01,VWS V14.01,2013-02-22 03:22:00,
2013-02-21 19:27:00,19.6,9.4,30.22,ESE,121,0.0,0.0,64,0.00,,---,0.01,VWS V14.01,2013-02-22 03:27:00,
2013-02-21 19:32:00,19.4,9.2,30.22,ESE,121,0.0,0.0,64,0.00,,---,0.01,VWS V14.01,2013-02-22 03:32:00,
2013-02-21 19:37:00,19.6,9.1,30.22,ESE,121,0.0,0.0,63,0.00,,---,0.01,VWS V14.01,2013-02-22 03:37:00,
2013-02-21 19:42:00,19.7,8.8,30.22,East,81,0.0,0.0,62,0.00,,---,0.01,VWS V14.01,2013-02-22 03:42:00,
2013-02-21 19:47:00,19.7,9.2,30.23,SSE,149,0.0,0.0,63,0.00,,---,0.01,VWS V14.01,2013-02-22 03:47:00,
2013-02-21 19:52:00,19.0,8.8,30.23,SSE,161,0.0,1.0,64,0.00,,---,0.01,VWS V14.01,2013-02-22 03:52:00,
2013-02-21 19:57:00,19.1,8.6,30.23,SE,130,0.0,0.0,63,0.00,,---,0.01,VWS V14.01,2013-02-22 03:57:00,
2013-02-21 20:03:00,19.2,9.0,30.23,South,188,0.0,0.0,64,0.00,,---,0.01,VWS V14.01,2013-02-22 04:03:00,
2013-02-21 20:08:00,19.0,8.5,30.24,ESE,104,1.0,1.0,63,0.00,,---,0.01,VWS V14.01,2013-02-22 04:08:00,
2013-02-21 20:13:00,19.7,8.8,30.24,ENE,75,0.0,0.0,62,0.00,,---,0.01,VWS V14.01,2013-02-22 04:13:00,
2013-02-21 20:18:00,20.6,7.8,30.24,ESE,118,0.0,1.0,57,0.00,,---,0.01,VWS V14.01,2013-02-22 04:18:00,
2013-02-21 20:23:00,21.1,8.3,30.24,SE,141,0.0,1.0,57,0.00,,---,0.01,VWS V14.01,2013-02-22 04:23:00,
2013-02-21 20:28:00,20.8,8.4,30.25,SE,128,0.0,0.0,58,0.00,,---,0.01,VWS V14.01,2013-02-22 04:28:00,
2013-02-21 20:33:00,20.6,7.8,30.25,South,170,0.0,2.0,57,0.00,,---,0.01,VWS V14.01,2013-02-22 04:33:00,
2013-02-21 20:38:00,21.0,7.4,30.25,NE,41,0.0,1.0,55,0.00,,---,0.01,VWS V14.01,2013-02-22 04:38:00,
2013-02-21 20:43:00,21.7,7.6,30.26,ENE,65,0.0,0.0,54,0.00,,---,0.01,VWS V14.01,2013-02-22 04:43:00,
2013-02-21 20:48:00,21.3,7.3,30.26,ESE,104,0.0,0.0,54,0.00,,---,0.01,VWS V14.01,2013-02-22 04:48:00,
2013-02-21 20:53:00,21.3,7.7,30.26,SE,143,0.0,0.0,55,0.00,,---,0.01,VWS V14.01,2013-02-22 04:53:00,
2013-02-21 20:58:00,21.4,8.6,30.27,East,89,0.0,0.0,57,0.00,,---,0.01,VWS V14.01,2013-02-22 04:58:00,
2013-02-21 21:00:00,21.2,7.6,30.27,SE,125,0.0,0.0,55,0.00,,---,0.01,VWS V14.01,2013-02-22 05:00:00,
2013-02-21 21:01:00,21.1,7.5,30.27,ESE,119,0.0,1.0,55,0.00,,---,0.01,VWS V14.01,2013-02-22 05:01:00,
2013-02-21 21:03:00,21.0,7.0,30.27,SE,146,0.0,0.0,54,0.00,,---,0.01,VWS V14.01,2013-02-22 05:03:00,
2013-02-21 21:06:00,21.0,7.0,30.27,East,94,1.0,1.0,54,0.00,,---,0.01,VWS V14.01,2013-02-22 05:06:00,
2013-02-21 21:11:00,21.2,6.8,30.27,East,94,0.0,0.0,53,0.00,,---,0.01,VWS V14.01,2013-02-22 05:11:00,
2013-02-21 21:16:00,20.9,7.3,30.27,SSW,201,0.0,1.0,55,0.00,,---,0.01,VWS V14.01,2013-02-22 05:16:00,
2013-02-21 21:21:00,20.9,7.3,30.27,South,190,1.0,1.0,55,0.00,,---,0.01,VWS V14.01,2013-02-22 05:21:00,
2013-02-21 21:26:00,20.7,6.7,30.27,South,190,0.0,0.0,54,0.00,,---,0.01,VWS V14.01,2013-02-22 05:26:00,
2013-02-21 21:31:00,20.5,7.3,30.27,South,191,0.0,0.0,56,0.00,,---,0.01,VWS V14.01,2013-02-22 05:31:00,
2013-02-21 21:36:00,20.0,7.2,30.27,South,191,0.0,0.0,57,0.00,,---,0.01,VWS V14.01,2013-02-22 05:36:00,
2013-02-21 21:41:00,19.3,7.3,30.27,South,191,0.0,0.0,59,0.00,,---,0.01,VWS V14.01,2013-02-22 05:41:00,
2013-02-21 21:46:00,18.6,7.0,30.27,South,191,0.0,0.0,60,0.00,,---,0.01,VWS V14.01,2013-02-22 05:46:00,
2013-02-21 21:51:00,18.1,6.6,30.27,South,190,0.0,0.0,60,0.00,,---,0.01,VWS V14.01,2013-02-22 05:51:00,
2013-02-21 21:56:00,17.5,6.7,30.27,South,191,0.0,0.0,62,0.00,,---,0.01,VWS V14.01,2013-02-22 05:56:00,
2013-02-21 22:02:00,16.8,6.4,30.27,South,191,0.0,0.0,63,0.00,,---,0.01,VWS V14.01,2013-02-22 06:02:00,
2013-02-21 22:07:00,16.3,6.6,30.27,South,191,0.0,0.0,65,0.00,,---,0.01,VWS V14.01,2013-02-22 06:07:00,
2013-02-21 22:12:00,15.8,6.1,30.27,South,191,0.0,0.0,65,0.00,,---,0.01,VWS V14.01,2013-02-22 06:12:00,
2013-02-21 22:17:00,15.4,5.8,30.28,South,191,0.0,0.0,65,0.00,,---,0.01,VWS V14.01,2013-02-22 06:17:00,
2013-02-21 22:22:00,15.1,6.1,30.28,South,191,0.0,0.0,67,0.00,,---,0.01,VWS V14.01,2013-02-22 06:22:00,
2013-02-21 22:27:00,14.8,5.5,30.28,South,191,0.0,0.0,66,0.00,,---,0.01,VWS V14.01,2013-02-22 06:27:00,
2013-02-21 22:32:00,14.3,6.0,30.27,South,191,0.0,0.0,69,0.00,,---,0.01,VWS V14.01,2013-02-22 06:32:00,
2013-02-21 22:37:00,14.1,5.8,30.28,South,190,0.0,0.0,69,0.00,,---,0.01,VWS V14.01,2013-02-22 06:37:00,
2013-02-21 22:42:00,13.9,5.9,30.28,South,191,0.0,0.0,70,0.00,,---,0.01,VWS V14.01,2013-02-22 06:42:00,
2013-02-21 22:47:00,13.4,6.1,30.28,South,191,0.0,0.0,72,0.00,,---,0.01,VWS V14.01,2013-02-22 06:47:00,
2013-02-21 22:52:00,13.3,6.0,30.27,South,191,0.0,0.0,72,0.00,,---,0.01,VWS V14.01,2013-02-22 06:52:00,
2013-02-21 22:57:00,13.4,5.8,30.28,South,191,0.0,0.0,71,0.00,,---,0.01,VWS V14.01,2013-02-22 06:57:00,
2013-02-21 23:02:00,12.9,6.2,30.28,South,191,0.0,0.0,74,0.00,,---,0.01,VWS V14.01,2013-02-22 07:02:00,
2013-02-21 23:07:00,13.0,6.0,30.28,South,191,0.0,1.0,73,0.00,,---,0.01,VWS V14.01,2013-02-22 07:07:00,
2013-02-21 23:12:00,13.1,6.4,30.28,South,191,0.0,0.0,74,0.00,,---,0.01,VWS V14.01,2013-02-22 07:12:00,
2013-02-21 23:17:00,13.0,6.3,30.28,South,191,0.0,0.0,74,0.00,,---,0.01,VWS V14.01,2013-02-22 07:17:00,
2013-02-21 23:22:00,13.2,6.2,30.28,South,191,0.0,0.0,73,0.00,,---,0.01,VWS V14.01,2013-02-22 07:22:00,
2013-02-21 23:27:00,13.2,5.9,30.28,South,191,0.0,0.0,72,0.00,,---,0.01,VWS V14.01,2013-02-22 07:27:00,
2013-02-21 23:32:00,13.0,5.4,30.28,South,191,0.0,1.0,71,0.00,,---,0.01,VWS V14.01,2013-02-22 07:32:00,
2013-02-21 23:37:00,12.6,5.6,30.28,South,191,0.0,0.0,73,0.00,,---,0.01,VWS V14.01,2013-02-22 07:37:00,
2013-02-21 23:42:00,12.3,5.0,30.28,South,191,0.0,0.0,72,0.00,,---,0.01,VWS V14.01,2013-02-22 07:42:00,
2013-02-21 23:47:00,12.6,5.6,30.28,South,191,0.0,0.0,73,0.00,,---,0.01,VWS V14.01,2013-02-22 07:47:00,
2013-02-21 23:52:00,12.5,5.8,30.28,South,191,0.0,0.0,74,0.00,,---,0.01,VWS V14.01,2013-02-22 07:52:00,
2013-02-21 23:57:00,13.0,5.1,30.28,South,191,0.0,0.0,70,0.00,,---,0.01,VWS V14.01,2013-02-22 07:57:00,